Time;durP1;ratioP1;P1;durP2;ratioP2;P2;SDS_P1;SDS_P2;PMS_P1;PMS_P2;Temp;Humidity;BMP_temperature;BMP_pressure;BME280_temperature;BME280_humidity;BME280_pressure;Samples;Min_cycle;Max_cycle;Signal;HPM_P1;HPM_P2
2023/07/25 00:01:33;;;;;;;18.77;8.33;;;;;;;;;;4896952;29;20056;-61
2023/07/25 00:04:00;;;;;;;21.40;8.40;;;;;;;;;;4913389;29;20048;-61
2023/07/25 00:06:26;;;;;;;17.23;8.47;;;;;;;;;;4913609;29;20051;-61
2023/07/25 00:08:51;;;;;;;22.80;9.43;;;;;;;;;;4912995;29;20048;-61
2023/07/25 00:11:17;;;;;;;19.13;8.13;;;;;;;;;;4912883;29;20044;-61
2023/07/25 00:13:43;;;;;;;21.20;7.93;;;;;;;;;;4914014;29;20082;-61
2023/07/25 00:16:09;;;;;;;19.83;7.40;;;;;;;;;;4911509;29;20181;-61
2023/07/25 00:18:35;;;;;;;16.23;6.67;;;;;;;;;;4913216;29;20126;-61
2023/07/25 00:21:01;;;;;;;16.43;7.90;;;;;;;;;;4913918;29;20396;-61
2023/07/25 00:23:27;;;;;;;20.43;7.40;;;;;;;;;;4913439;29;20088;-61
2023/07/25 00:25:53;;;;;;;14.37;7.50;;;;;;;;;;4912552;29;20087;-61
2023/07/25 00:28:22;;;;;;;18.53;7.40;;;;;;;;;;4912957;29;20048;-61
2023/07/25 00:30:48;;;;;;;15.70;7.30;;;;;;;;;;4912093;29;20422;-61
2023/07/25 00:33:14;;;;;;;17.70;6.97;;;;;;;;;;4913129;29;20055;-61
2023/07/25 00:35:40;;;;;;;15.73;7.10;;;;;;;;;;4913506;29;20459;-61
2023/07/25 00:38:06;;;;;;;13.80;7.50;;;;;;;;;;4913499;29;20048;-61
2023/07/25 00:40:32;;;;;;;17.97;6.93;;;;;;;;;;4913486;29;20040;-61
2023/07/25 00:42:58;;;;;;;15.47;7.50;;;;;;;;;;4913406;29;20533;-61
2023/07/25 00:45:24;;;;;;;16.83;7.10;;;;;;;;;;4912229;29;20060;-61
2023/07/25 00:47:50;;;;;;;14.97;8.20;;;;;;;;;;4913103;29;20048;-61
2023/07/25 00:50:16;;;;;;;13.53;7.17;;;;;;;;;;4911850;29;20051;-61
2023/07/25 00:52:42;;;;;;;19.60;7.47;;;;;;;;;;4912932;29;20052;-61
2023/07/25 00:55:08;;;;;;;17.37;7.37;;;;;;;;;;4912579;29;20059;-61
2023/07/25 00:57:35;;;;;;;20.33;7.60;;;;;;;;;;4913066;29;20055;-61
2023/07/25 01:00:00;;;;;;;16.23;6.80;;;;;;;;;;4913087;29;20842;-62
2023/07/25 01:02:27;;;;;;;16.50;7.43;;;;;;;;;;4913099;29;20529;-61
2023/07/25 01:04:53;;;;;;;19.77;7.13;;;;;;;;;;4912726;29;20047;-61
2023/07/25 01:07:19;;;;;;;16.70;8.00;;;;;;;;;;4913049;29;20044;-61
2023/07/25 01:09:46;;;;;;;14.80;7.57;;;;;;;;;;4912827;29;20040;-60
2023/07/25 01:12:12;;;;;;;23.53;8.37;;;;;;;;;;4912848;29;20052;-61
2023/07/25 01:14:39;;;;;;;16.63;7.70;;;;;;;;;;4912182;29;20147;-61
2023/07/25 01:17:09;;;;;;;15.10;7.87;;;;;;;;;;4912028;29;20052;-61
2023/07/25 01:19:35;;;;;;;17.80;7.73;;;;;;;;;;4912661;29;20411;-61
2023/07/25 01:22:01;;;;;;;20.87;8.07;;;;;;;;;;4912467;29;20143;-61
2023/07/25 01:24:27;;;;;;;16.33;8.10;;;;;;;;;;4911536;29;20146;-61
2023/07/25 01:26:53;;;;;;;24.80;10.00;;;;;;;;;;4912683;29;20514;-61
2023/07/25 01:29:19;;;;;;;18.97;8.17;;;;;;;;;;4911779;29;20214;-61
2023/07/25 01:31:45;;;;;;;19.13;8.43;;;;;;;;;;4912586;29;20516;-61
2023/07/25 01:34:11;;;;;;;20.47;9.80;;;;;;;;;;4912505;29;20080;-61
2023/07/25 01:36:37;;;;;;;20.47;9.03;;;;;;;;;;4912167;29;20075;-61
2023/07/25 01:39:03;;;;;;;19.30;9.67;;;;;;;;;;4912365;29;20040;-61
2023/07/25 01:41:29;;;;;;;21.27;9.40;;;;;;;;;;4912279;29;20103;-61
2023/07/25 01:43:55;;;;;;;26.73;9.90;;;;;;;;;;4911085;29;20132;-61
2023/07/25 01:46:21;;;;;;;21.70;8.83;;;;;;;;;;4912090;29;20043;-61
2023/07/25 01:48:47;;;;;;;27.73;10.27;;;;;;;;;;4912420;29;20423;-62
2023/07/25 01:51:13;;;;;;;20.53;9.30;;;;;;;;;;4912514;29;20067;-61
2023/07/25 01:53:39;;;;;;;23.50;9.90;;;;;;;;;;4911608;29;20060;-61
2023/07/25 01:56:05;;;;;;;21.07;9.23;;;;;;;;;;4912040;29;20071;-61
2023/07/25 01:58:31;;;;;;;18.17;8.87;;;;;;;;;;4911884;29;20512;-61
2023/07/25 02:01:00;;;;;;;26.77;9.40;;;;;;;;;;4912092;29;20107;-61
2023/07/25 02:03:27;;;;;;;25.27;10.30;;;;;;;;;;4912008;29;20100;-61
2023/07/25 02:05:53;;;;;;;24.23;10.40;;;;;;;;;;4912108;29;20044;-61
2023/07/25 02:08:19;;;;;;;28.47;11.17;;;;;;;;;;4911531;29;20052;-62
2023/07/25 02:10:45;;;;;;;22.70;10.47;;;;;;;;;;4915655;29;20094;-61
2023/07/25 02:13:11;;;;;;;30.03;11.37;;;;;;;;;;4915951;29;20095;-61
2023/07/25 02:15:37;;;;;;;23.63;11.83;;;;;;;;;;4913861;29;20047;-61
2023/07/25 02:18:03;;;;;;;21.30;11.30;;;;;;;;;;4914828;29;20661;-62
2023/07/25 02:20:32;;;;;;;19.57;11.20;;;;;;;;;;4915039;29;20092;-61
2023/07/25 02:22:58;;;;;;;24.67;10.93;;;;;;;;;;4915631;29;20120;-61
2023/07/25 02:25:28;;;;;;;21.80;11.37;;;;;;;;;;4915788;29;20401;-61
2023/07/25 02:27:54;;;;;;;22.07;10.57;;;;;;;;;;4915407;29;20506;-61
2023/07/25 02:30:21;;;;;;;18.77;10.20;;;;;;;;;;4915649;29;20131;-61
2023/07/25 02:32:47;;;;;;;15.50;9.53;;;;;;;;;;4915496;29;20048;-61
2023/07/25 02:35:14;;;;;;;23.50;11.10;;;;;;;;;;4915705;29;20063;-61
2023/07/25 02:37:40;;;;;;;20.90;9.33;;;;;;;;;;4913825;29;20075;-61
2023/07/25 02:40:07;;;;;;;19.03;9.30;;;;;;;;;;4915319;29;20056;-61
2023/07/25 02:42:33;;;;;;;19.47;10.40;;;;;;;;;;4915275;29;20044;-61
2023/07/25 02:44:59;;;;;;;19.33;8.97;;;;;;;;;;4915302;29;20044;-61
2023/07/25 02:47:25;;;;;;;18.83;9.50;;;;;;;;;;4914828;29;20068;-61
2023/07/25 02:49:50;;;;;;;20.50;9.20;;;;;;;;;;4914511;29;20055;-61
2023/07/25 02:52:17;;;;;;;19.80;8.20;;;;;;;;;;4915458;29;20102;-61
2023/07/25 02:54:43;;;;;;;18.33;9.17;;;;;;;;;;4915412;29;20051;-61
2023/07/25 02:57:09;;;;;;;21.73;8.57;;;;;;;;;;4914229;29;20048;-61
2023/07/25 02:59:35;;;;;;;28.03;11.17;;;;;;;;;;4915300;29;20091;-61
2023/07/25 03:02:01;;;;;;;20.03;9.57;;;;;;;;;;4915373;29;20048;-61
2023/07/25 03:04:27;;;;;;;20.90;8.73;;;;;;;;;;4914915;29;20465;-61
2023/07/25 03:06:53;;;;;;;17.63;8.50;;;;;;;;;;4914896;29;20043;-61
2023/07/25 03:09:19;;;;;;;15.23;7.90;;;;;;;;;;4915221;29;20522;-61
2023/07/25 03:11:45;;;;;;;22.03;8.33;;;;;;;;;;4914982;29;20063;-61
2023/07/25 03:14:11;;;;;;;18.70;8.77;;;;;;;;;;4914255;29;20052;-60
2023/07/25 03:16:37;;;;;;;18.80;9.10;;;;;;;;;;4915043;29;20055;-60
2023/07/25 03:19:03;;;;;;;20.20;9.23;;;;;;;;;;4914329;29;20460;-61
2023/07/25 03:21:29;;;;;;;22.17;8.60;;;;;;;;;;4913473;29;20055;-61
2023/07/25 03:23:55;;;;;;;17.97;9.10;;;;;;;;;;4914319;29;20067;-61
2023/07/25 03:26:21;;;;;;;22.93;8.13;;;;;;;;;;4914992;29;20048;-60
2023/07/25 03:28:47;;;;;;;19.47;8.77;;;;;;;;;;4914752;29;20044;-61
2023/07/25 03:31:13;;;;;;;17.20;6.97;;;;;;;;;;4914213;29;20606;-61
2023/07/25 03:33:39;;;;;;;17.07;6.67;;;;;;;;;;4914262;29;20099;-60
2023/07/25 03:36:05;;;;;;;17.23;7.13;;;;;;;;;;4914699;29;20044;-60
2023/07/25 03:38:31;;;;;;;13.13;6.73;;;;;;;;;;4914780;29;20055;-60
2023/07/25 03:40:57;;;;;;;17.40;6.97;;;;;;;;;;4914304;29;20044;-61
2023/07/25 03:43:23;;;;;;;17.57;7.70;;;;;;;;;;4914345;29;20048;-61
2023/07/25 03:45:49;;;;;;;19.90;7.27;;;;;;;;;;4913959;29;20532;-60
2023/07/25 03:48:15;;;;;;;16.83;7.30;;;;;;;;;;4897348;29;20130;-61
2023/07/25 03:50:41;;;;;;;16.07;7.60;;;;;;;;;;4913811;29;20123;-61
2023/07/25 03:53:07;;;;;;;16.33;7.30;;;;;;;;;;4913366;29;20577;-61
2023/07/25 03:55:33;;;;;;;15.73;7.03;;;;;;;;;;4896691;29;20044;-60
2023/07/25 03:57:59;;;;;;;16.50;6.80;;;;;;;;;;4914013;29;20071;-61
2023/07/25 04:00:25;;;;;;;18.27;7.20;;;;;;;;;;4913854;29;20462;-61
2023/07/25 04:02:51;;;;;;;13.27;6.60;;;;;;;;;;4914104;29;20048;-61
2023/07/25 04:05:17;;;;;;;14.90;6.53;;;;;;;;;;4913051;29;20048;-60
2023/07/25 04:07:43;;;;;;;15.13;6.33;;;;;;;;;;4909987;29;20106;-61
2023/07/25 04:10:09;;;;;;;16.80;6.87;;;;;;;;;;4913707;29;20048;-61
2023/07/25 04:12:35;;;;;;;17.13;7.50;;;;;;;;;;4913925;29;20048;-61
2023/07/25 04:15:01;;;;;;;15.43;7.27;;;;;;;;;;4913426;29;20356;-61
2023/07/25 04:17:27;;;;;;;14.43;6.33;;;;;;;;;;4913836;29;20044;-60
2023/07/25 04:19:53;;;;;;;11.87;6.40;;;;;;;;;;4912953;29;20047;-61
2023/07/25 04:22:19;;;;;;;15.63;6.90;;;;;;;;;;4913452;29;20044;-61
2023/07/25 04:24:45;;;;;;;21.70;7.70;;;;;;;;;;4913547;29;20427;-60
2023/07/25 04:27:10;;;;;;;16.80;6.33;;;;;;;;;;4912899;29;20062;-61
2023/07/25 04:29:36;;;;;;;15.70;6.73;;;;;;;;;;4913301;29;20487;-61
2023/07/25 04:32:02;;;;;;;16.13;6.07;;;;;;;;;;4913132;29;20044;-60
2023/07/25 04:34:28;;;;;;;19.83;7.70;;;;;;;;;;4913714;29;20119;-61
2023/07/25 04:36:54;;;;;;;13.10;5.57;;;;;;;;;;4913702;29;20498;-61
2023/07/25 04:39:20;;;;;;;12.97;6.67;;;;;;;;;;4912164;29;20127;-61
2023/07/25 04:41:46;;;;;;;12.37;5.77;;;;;;;;;;4913097;29;20051;-61
2023/07/25 04:44:12;;;;;;;13.57;5.40;;;;;;;;;;4913473;29;20048;-61
2023/07/25 04:46:38;;;;;;;16.30;5.60;;;;;;;;;;4913269;29;20051;-61
2023/07/25 04:49:06;;;;;;;15.17;5.60;;;;;;;;;;4913019;29;20067;-61
2023/07/25 04:51:32;;;;;;;17.17;6.30;;;;;;;;;;4912691;29;20056;-61
2023/07/25 04:53:58;;;;;;;18.17;5.23;;;;;;;;;;4912598;29;20044;-61
2023/07/25 04:56:24;;;;;;;12.20;4.90;;;;;;;;;;4912961;29;20045;-61
2023/07/25 04:58:50;;;;;;;9.73;4.87;;;;;;;;;;4912975;29;20477;-60
2023/07/25 05:01:16;;;;;;;14.00;5.40;;;;;;;;;;4913006;29;20044;-61
2023/07/25 05:03:42;;;;;;;18.80;4.93;;;;;;;;;;4913121;29;20044;-61
2023/07/25 05:06:08;;;;;;;12.27;4.70;;;;;;;;;;4913276;29;20083;-60
2023/07/25 05:08:34;;;;;;;14.60;4.97;;;;;;;;;;4912546;29;20632;-61
2023/07/25 05:11:01;;;;;;;10.37;4.70;;;;;;;;;;4913125;29;20048;-60
2023/07/25 05:13:29;;;;;;;16.50;4.27;;;;;;;;;;4913197;29;20055;-61
2023/07/25 05:15:54;;;;;;;8.67;4.23;;;;;;;;;;4913304;29;20052;-60
2023/07/25 05:18:20;;;;;;;9.40;4.47;;;;;;;;;;4912538;29;21095;-61
2023/07/25 05:20:46;;;;;;;11.47;4.70;;;;;;;;;;4895221;29;20079;-61
2023/07/25 05:23:12;;;;;;;10.63;4.10;;;;;;;;;;4913008;29;20119;-60
2023/07/25 05:25:39;;;;;;;13.97;4.83;;;;;;;;;;4913231;29;20059;-61
2023/07/25 05:28:05;;;;;;;10.13;4.47;;;;;;;;;;4912137;29;20466;-60
2023/07/25 05:30:31;;;;;;;13.47;5.13;;;;;;;;;;4912545;29;20051;-61
2023/07/25 05:32:57;;;;;;;13.37;3.60;;;;;;;;;;4911877;29;20495;-60
2023/07/25 05:35:23;;;;;;;11.00;2.90;;;;;;;;;;4912749;29;20055;-61
2023/07/25 05:37:49;;;;;;;9.60;3.17;;;;;;;;;;4911186;29;20062;-61
2023/07/25 05:40:15;;;;;;;11.70;3.10;;;;;;;;;;4912673;29;20392;-61
2023/07/25 05:42:41;;;;;;;15.43;3.93;;;;;;;;;;4912323;29;20048;-61
2023/07/25 05:45:07;;;;;;;7.73;3.13;;;;;;;;;;4912278;29;20253;-60
2023/07/25 05:47:33;;;;;;;11.73;3.57;;;;;;;;;;4913121;29;20090;-61
2023/07/25 05:49:59;;;;;;;11.03;3.73;;;;;;;;;;4911797;29;20079;-61
2023/07/25 05:52:25;;;;;;;9.87;3.47;;;;;;;;;;4912212;29;20075;-61
2023/07/25 05:54:53;;;;;;;12.90;3.43;;;;;;;;;;4911222;29;20108;-61
2023/07/25 05:57:19;;;;;;;8.53;2.97;;;;;;;;;;4912828;29;20433;-61
2023/07/25 05:59:46;;;;;;;13.23;2.83;;;;;;;;;;4895556;29;20059;-60
2023/07/25 06:02:12;;;;;;;6.57;2.23;;;;;;;;;;4895598;29;20418;-61
2023/07/25 06:04:38;;;;;;;8.67;2.70;;;;;;;;;;4912302;29;20048;-61
2023/07/25 06:07:04;;;;;;;10.37;2.20;;;;;;;;;;4912670;29;20052;-61
2023/07/25 06:09:30;;;;;;;8.93;2.17;;;;;;;;;;4912509;29;20048;-61
2023/07/25 06:11:56;;;;;;;15.87;2.67;;;;;;;;;;4912585;29;20102;-61
2023/07/25 06:14:22;;;;;;;11.73;2.50;;;;;;;;;;4912659;29;20044;-61
2023/07/25 06:16:48;;;;;;;11.63;2.30;;;;;;;;;;4912513;29;20045;-61
2023/07/25 06:19:14;;;;;;;8.77;2.10;;;;;;;;;;4911645;29;20554;-61
2023/07/25 06:21:40;;;;;;;10.43;3.00;;;;;;;;;;4916282;29;20047;-61
2023/07/25 06:24:06;;;;;;;9.67;2.77;;;;;;;;;;4919904;29;20063;-60
2023/07/25 06:26:32;;;;;;;11.77;1.83;;;;;;;;;;4917671;29;20582;-61
2023/07/25 06:28:58;;;;;;;13.80;2.30;;;;;;;;;;4911031;29;20040;-61
2023/07/25 06:31:24;;;;;;;12.07;2.67;;;;;;;;;;4910876;29;20051;-61
2023/07/25 06:33:50;;;;;;;10.03;2.43;;;;;;;;;;4912641;29;20395;-61
2023/07/25 06:36:16;;;;;;;6.73;2.00;;;;;;;;;;4926596;29;20048;-61
2023/07/25 06:38:42;;;;;;;11.57;2.03;;;;;;;;;;4920882;29;20048;-61
2023/07/25 06:41:08;;;;;;;11.77;2.33;;;;;;;;;;4915557;29;20103;-61
2023/07/25 06:43:34;;;;;;;10.00;2.17;;;;;;;;;;4931067;29;20075;-61
2023/07/25 06:46:00;;;;;;;9.53;1.80;;;;;;;;;;4912209;29;20040;-60
2023/07/25 06:48:26;;;;;;;4.73;1.43;;;;;;;;;;4910821;29;20633;-61
2023/07/25 06:50:52;;;;;;;6.00;1.50;;;;;;;;;;4917543;29;20067;-61
2023/07/25 06:53:18;;;;;;;7.87;2.20;;;;;;;;;;4904588;29;20064;-61
2023/07/25 06:55:44;;;;;;;12.43;1.87;;;;;;;;;;4914072;29;20048;-61
2023/07/25 06:58:10;;;;;;;10.40;1.80;;;;;;;;;;4927791;29;20138;-61
2023/07/25 07:00:37;;;;;;;9.37;1.90;;;;;;;;;;4933349;29;20126;-61
2023/07/25 07:03:04;;;;;;;8.17;2.00;;;;;;;;;;4930636;29;20063;-61
2023/07/25 07:05:31;;;;;;;10.40;1.60;;;;;;;;;;4915080;29;20518;-61
2023/07/25 07:07:57;;;;;;;8.73;2.50;;;;;;;;;;4917117;29;20493;-61
2023/07/25 07:10:23;;;;;;;11.03;1.63;;;;;;;;;;4914767;29;20044;-61
2023/07/25 07:12:49;;;;;;;7.20;1.40;;;;;;;;;;4918228;29;20043;-61
2023/07/25 07:15:15;;;;;;;24.50;6.20;;;;;;;;;;4933675;29;20491;-61
2023/07/25 07:17:41;;;;;;;12.27;2.30;;;;;;;;;;4914778;29;20131;-61
2023/07/25 07:20:08;;;;;;;6.33;1.27;;;;;;;;;;4913321;29;20052;-61
2023/07/25 07:22:34;;;;;;;14.40;1.93;;;;;;;;;;4913968;29;20415;-61
2023/07/25 07:25:00;;;;;;;6.93;1.60;;;;;;;;;;4913474;29;20140;-62
2023/07/25 07:27:26;;;;;;;6.27;1.20;;;;;;;;;;4914030;29;20079;-62
2023/07/25 07:29:52;;;;;;;6.13;1.30;;;;;;;;;;4925223;29;20040;-61
2023/07/25 07:32:19;;;;;;;7.60;1.93;;;;;;;;;;4925931;29;20195;-61
2023/07/25 07:34:44;;;;;;;8.60;1.40;;;;;;;;;;4913918;29;20044;-61
2023/07/25 07:37:10;;;;;;;5.97;1.13;;;;;;;;;;4913257;29;20100;-61
2023/07/25 07:39:39;;;;;;;9.73;1.33;;;;;;;;;;4913904;29;20381;-61
2023/07/25 07:42:05;;;;;;;6.63;1.07;;;;;;;;;;4918863;29;20052;-61
2023/07/25 07:44:31;;;;;;;7.07;1.23;;;;;;;;;;4915783;29;20048;-61
2023/07/25 07:46:57;;;;;;;3.57;0.93;;;;;;;;;;4933510;29;20059;-61
2023/07/25 07:49:23;;;;;;;9.87;1.40;;;;;;;;;;4914640;29;20114;-61
2023/07/25 07:51:49;;;;;;;5.27;0.83;;;;;;;;;;4913874;29;20040;-61
2023/07/25 07:54:15;;;;;;;5.13;1.07;;;;;;;;;;4913515;29;20051;-61
2023/07/25 07:56:41;;;;;;;8.57;1.10;;;;;;;;;;4913618;29;20157;-61
2023/07/25 07:59:07;;;;;;;5.70;0.87;;;;;;;;;;4912512;29;20055;-61
2023/07/25 08:01:33;;;;;;;3.20;0.87;;;;;;;;;;4924618;29;20058;-60
2023/07/25 08:03:59;;;;;;;2.23;0.50;;;;;;;;;;4927617;29;20040;-60
2023/07/25 08:06:25;;;;;;;7.30;1.50;;;;;;;;;;4912717;29;20392;-60
2023/07/25 08:08:51;;;;;;;6.73;0.93;;;;;;;;;;4921611;29;20463;-60
2023/07/25 08:11:17;;;;;;;4.80;0.70;;;;;;;;;;4912920;29;20041;-60
2023/07/25 08:13:43;;;;;;;4.50;0.80;;;;;;;;;;4912786;29;20056;-60
2023/07/25 08:16:09;;;;;;;5.30;0.80;;;;;;;;;;4911344;29;20052;-61
2023/07/25 08:18:35;;;;;;;6.90;1.00;;;;;;;;;;4913264;29;20127;-61
2023/07/25 08:21:02;;;;;;;5.00;0.80;;;;;;;;;;4926096;29;20051;-60
2023/07/25 08:23:28;;;;;;;4.93;1.07;;;;;;;;;;4930367;29;20052;-61
2023/07/25 08:25:57;;;;;;;4.93;1.03;;;;;;;;;;4931388;29;20652;-60
2023/07/25 08:28:24;;;;;;;2.70;0.93;;;;;;;;;;4922043;29;20048;-60
2023/07/25 08:30:59;;;;;;;6.03;0.90;;;;;;;;;;4912851;29;20040;-61
2023/07/25 08:33:26;;;;;;;5.73;0.80;;;;;;;;;;4914056;29;20751;-61
2023/07/25 08:35:53;;;;;;;3.50;1.33;;;;;;;;;;4912681;29;20531;-61
2023/07/25 08:38:19;;;;;;;4.60;0.80;;;;;;;;;;4912399;29;20052;-61
2023/07/25 08:40:47;;;;;;;3.50;0.83;;;;;;;;;;4913323;29;20051;-60
2023/07/25 08:43:14;;;;;;;4.63;0.90;;;;;;;;;;4911590;29;20503;-61
2023/07/25 08:45:41;;;;;;;5.47;1.13;;;;;;;;;;4913001;29;20426;-60
2023/07/25 08:48:10;;;;;;;5.17;1.10;;;;;;;;;;4915419;29;20056;-61
2023/07/25 08:50:37;;;;;;;3.30;0.87;;;;;;;;;;4910090;29;20044;-60
2023/07/25 08:53:09;;;;;;;4.37;1.30;;;;;;;;;;4910495;29;20043;-60
2023/07/25 08:55:36;;;;;;;4.73;0.60;;;;;;;;;;4912538;29;20510;-61
2023/07/25 08:58:02;;;;;;;4.23;0.93;;;;;;;;;;4911810;29;20048;-60
2023/07/25 09:00:28;;;;;;;5.27;1.10;;;;;;;;;;4916090;29;20530;-61
2023/07/25 09:02:54;;;;;;;2.87;0.87;;;;;;;;;;4923968;29;20054;-60
2023/07/25 09:05:21;;;;;;;4.57;1.03;;;;;;;;;;4927761;29;20043;-61
2023/07/25 09:07:47;;;;;;;5.87;0.90;;;;;;;;;;4913738;29;20391;-60
2023/07/25 09:10:13;;;;;;;4.77;0.70;;;;;;;;;;4917082;29;20398;-60
2023/07/25 09:12:38;;;;;;;4.40;0.90;;;;;;;;;;4921169;29;20047;-61
2023/07/25 09:15:05;;;;;;;2.87;0.53;;;;;;;;;;4929738;29;20103;-61
2023/07/25 09:17:31;;;;;;;2.97;1.13;;;;;;;;;;4917204;29;20051;-61
2023/07/25 09:19:57;;;;;;;6.70;0.87;;;;;;;;;;4911324;29;20048;-61
2023/07/25 09:22:30;;;;;;;2.80;0.90;;;;;;;;;;4910647;29;20048;-61
2023/07/25 09:24:57;;;;;;;5.80;1.20;;;;;;;;;;4910029;29;20051;-61
2023/07/25 09:27:23;;;;;;;2.83;0.77;;;;;;;;;;4912384;29;20047;-61
2023/07/25 09:29:50;;;;;;;1.87;0.70;;;;;;;;;;4910326;29;20047;-61
2023/07/25 09:32:22;;;;;;;5.63;1.17;;;;;;;;;;4911483;29;20064;-61
2023/07/25 09:34:57;;;;;;;7.60;0.90;;;;;;;;;;4895221;29;20191;-61
2023/07/25 09:37:24;;;;;;;6.10;0.97;;;;;;;;;;4910071;29;20044;-61
2023/07/25 09:39:50;;;;;;;2.53;0.70;;;;;;;;;;4923230;29;20044;-60
2023/07/25 09:42:16;;;;;;;3.57;0.70;;;;;;;;;;4923614;29;20423;-61
2023/07/25 09:44:46;;;;;;;5.33;0.90;;;;;;;;;;4910450;29;20044;-61
2023/07/25 09:47:12;;;;;;;2.57;0.63;;;;;;;;;;4911296;29;20168;-61
2023/07/25 09:49:38;;;;;;;4.63;0.82;;;;;;;;;;4911165;29;20131;-61
2023/07/25 09:52:05;;;;;;;3.70;0.93;;;;;;;;;;4910612;29;20048;-61
2023/07/25 09:54:31;;;;;;;3.47;0.83;;;;;;;;;;4911709;29;20088;-61
2023/07/25 09:56:57;;;;;;;2.95;0.60;;;;;;;;;;4911468;29;20044;-61
2023/07/25 09:59:23;;;;;;;2.88;0.90;;;;;;;;;;4911848;29;20047;-61
2023/07/25 10:01:51;;;;;;;6.05;1.08;;;;;;;;;;4911662;29;20059;-61
2023/07/25 10:04:17;;;;;;;3.40;0.63;;;;;;;;;;4915121;29;20075;-62
2023/07/25 10:06:43;;;;;;;2.13;0.40;;;;;;;;;;4912354;29;20111;-61
2023/07/25 10:09:10;;;;;;;2.03;0.45;;;;;;;;;;4911591;29;20045;-62
2023/07/25 10:11:36;;;;;;;3.60;0.73;;;;;;;;;;4911169;29;20048;-62
2023/07/25 10:14:03;;;;;;;5.27;0.63;;;;;;;;;;4911484;29;20358;-61
2023/07/25 10:16:29;;;;;;;1.63;0.50;;;;;;;;;;4911082;29;20538;-61
2023/07/25 10:18:57;;;;;;;3.05;0.63;;;;;;;;;;4911178;29;20052;-61
2023/07/25 10:21:27;;;;;;;2.28;0.68;;;;;;;;;;4911025;29;20079;-62
2023/07/25 10:23:58;;;;;;;4.22;0.60;;;;;;;;;;4911071;29;20061;-61
2023/07/25 10:26:24;;;;;;;3.45;0.65;;;;;;;;;;4912499;29;20470;-62
2023/07/25 10:28:52;;;;;;;4.15;0.70;;;;;;;;;;4911963;29;20410;-62
2023/07/25 10:31:22;;;;;;;3.25;1.02;;;;;;;;;;4920470;29;20075;-62
2023/07/25 10:33:55;;;;;;;6.57;0.70;;;;;;;;;;4920995;29;20396;-62
2023/07/25 10:36:22;;;;;;;;;;;;;;;;;;4931394;29;20040;-62
2023/07/25 10:38:48;;;;;;;5.30;1.50;;;;;;;;;;4911829;29;20428;-62
2023/07/25 10:41:16;;;;;;;4.43;0.85;;;;;;;;;;4896990;29;20119;-62
2023/07/25 10:43:48;;;;;;;2.22;0.70;;;;;;;;;;4897364;29;20164;-61
2023/07/25 10:46:26;;;;;;;3.33;0.77;;;;;;;;;;4914950;29;20047;-61
2023/07/25 10:48:56;;;;;;;2.78;0.65;;;;;;;;;;4906374;29;20045;-62
2023/07/25 10:51:23;;;;;;;1.77;0.52;;;;;;;;;;4896936;29;20048;-62
2023/07/25 10:54:12;;;;;;;4.65;1.10;;;;;;;;;;4900414;29;20091;-62
2023/07/25 10:56:38;;;;;;;4.18;1.02;;;;;;;;;;4916018;29;20147;-61
2023/07/25 10:59:08;;;;;;;4.25;0.88;;;;;;;;;;4917824;29;20056;-62
2023/07/25 11:01:45;;;;;;;3.08;0.80;;;;;;;;;;4934614;29;20525;-62
2023/07/25 11:04:40;;;;;;;2.70;0.68;;;;;;;;;;4934312;29;20494;-61
2023/07/25 11:07:10;;;;;;;3.05;0.80;;;;;;;;;;4921046;29;20044;-62
2023/07/25 11:09:40;;;;;;;4.35;1.20;;;;;;;;;;4934194;29;20079;-61
2023/07/25 11:12:07;;;;;;;5.55;1.20;;;;;;;;;;4918384;29;20155;-61
2023/07/25 11:14:39;;;;;;;2.80;0.80;;;;;;;;;;4915536;29;20163;-62
2023/07/25 11:17:06;;;;;;;3.38;0.90;;;;;;;;;;4915010;29;20134;-61
2023/07/25 11:19:32;;;;;;;1.85;0.50;;;;;;;;;;4914692;29;20100;-60
2023/07/25 11:21:58;;;;;;;3.25;0.70;;;;;;;;;;4914651;29;20072;-61
2023/07/25 11:24:24;;;;;;;3.47;0.90;;;;;;;;;;4915187;29;20063;-62
2023/07/25 11:26:50;;;;;;;2.63;0.80;;;;;;;;;;4914970;29;20052;-61
2023/07/25 11:29:17;;;;;;;2.97;0.77;;;;;;;;;;4914026;29;20126;-61
2023/07/25 11:31:47;;;;;;;3.08;0.93;;;;;;;;;;4914421;29;20044;-61
2023/07/25 11:34:14;;;;;;;2.97;0.73;;;;;;;;;;4915040;29;20222;-61
2023/07/25 11:36:40;;;;;;;3.70;1.17;;;;;;;;;;4915000;29;20037;-61
2023/07/25 11:39:08;;;;;;;1.73;0.55;;;;;;;;;;4914689;29;20048;-61
2023/07/25 11:41:34;;;;;;;2.72;0.70;;;;;;;;;;4913369;29;20127;-61
2023/07/25 11:44:03;;;;;;;2.17;0.73;;;;;;;;;;4914357;29;20502;-61
2023/07/25 11:46:29;;;;;;;2.65;0.82;;;;;;;;;;4914144;29;20076;-62
2023/07/25 11:48:55;;;;;;;3.88;0.85;;;;;;;;;;4913541;29;20040;-62
2023/07/25 11:51:21;;;;;;;2.45;0.80;;;;;;;;;;4915533;29;20090;-62
2023/07/25 11:53:48;;;;;;;3.05;0.80;;;;;;;;;;4932968;29;20043;-62
2023/07/25 11:56:14;;;;;;;2.83;0.80;;;;;;;;;;4916195;29;20079;-62
2023/07/25 11:58:47;;;;;;;2.20;0.70;;;;;;;;;;4924352;29;20052;-61
2023/07/25 12:01:13;;;;;;;2.25;0.70;;;;;;;;;;4926246;29;20055;-61
2023/07/25 12:03:45;;;;;;;4.10;0.77;;;;;;;;;;4914245;29;20633;-61
2023/07/25 12:06:11;;;;;;;3.25;0.90;;;;;;;;;;4913996;29;20130;-62
2023/07/25 12:08:41;;;;;;;1.65;0.60;;;;;;;;;;4913264;29;20465;-61
2023/07/25 12:11:07;;;;;;;2.03;0.63;;;;;;;;;;4922340;29;20424;-62
2023/07/25 12:13:42;;;;;;;2.85;0.70;;;;;;;;;;4913327;29;20152;-61
2023/07/25 12:16:08;;;;;;;2.60;1.00;;;;;;;;;;4912832;29;20052;-62
2023/07/25 12:18:37;;;;;;;4.95;1.00;;;;;;;;;;4922232;29;20419;-61
2023/07/25 12:21:04;;;;;;;7.75;1.17;;;;;;;;;;4913754;29;20048;-61
2023/07/25 12:23:31;;;;;;;4.85;1.13;;;;;;;;;;4932877;29;20110;-61
2023/07/25 12:25:58;;;;;;;3.17;0.80;;;;;;;;;;4931593;29;20099;-61
2023/07/25 12:28:24;;;;;;;2.75;0.80;;;;;;;;;;4924080;29;20048;-61
2023/07/25 12:30:50;;;;;;;4.18;1.08;;;;;;;;;;4913581;29;20044;-61
2023/07/25 12:33:16;;;;;;;2.40;0.82;;;;;;;;;;4913049;29;20060;-62
2023/07/25 12:35:42;;;;;;;5.90;1.02;;;;;;;;;;4909420;29;20055;-62
2023/07/25 12:38:08;;;;;;;5.43;0.90;;;;;;;;;;4911493;29;20495;-61
2023/07/25 12:40:34;;;;;;;6.88;1.13;;;;;;;;;;4912872;29;20074;-61
2023/07/25 12:43:00;;;;;;;2.47;0.60;;;;;;;;;;4910609;29;20048;-62
2023/07/25 12:45:27;;;;;;;4.97;1.40;;;;;;;;;;4910937;29;20115;-61
2023/07/25 12:47:53;;;;;;;2.88;0.93;;;;;;;;;;4912211;29;20052;-62
2023/07/25 12:50:19;;;;;;;6.25;1.23;;;;;;;;;;4912664;29;20060;-62
2023/07/25 12:52:45;;;;;;;4.20;1.00;;;;;;;;;;4911757;29;20048;-62
2023/07/25 12:55:11;;;;;;;6.68;1.30;;;;;;;;;;4911987;29;20059;-62
2023/07/25 12:57:37;;;;;;;5.60;0.93;;;;;;;;;;4912534;29;20443;-62
2023/07/25 13:00:06;;;;;;;4.93;1.10;;;;;;;;;;4912286;29;20040;-62
2023/07/25 13:02:32;;;;;;;4.40;1.38;;;;;;;;;;4912658;29;20183;-62
2023/07/25 13:04:58;;;;;;;7.78;1.52;;;;;;;;;;4912202;29;20055;-61
2023/07/25 13:07:24;;;;;;;3.55;0.82;;;;;;;;;;4912562;29;20484;-62
2023/07/25 13:09:55;;;;;;;3.80;1.05;;;;;;;;;;4911736;29;20070;-61
2023/07/25 13:12:21;;;;;;;3.33;0.82;;;;;;;;;;4912606;29;20984;-61
2023/07/25 13:14:48;;;;;;;3.08;0.93;;;;;;;;;;4912321;29;20210;-62
2023/07/25 13:17:14;;;;;;;5.53;0.80;;;;;;;;;;4912178;29;20056;-61
2023/07/25 13:19:40;;;;;;;1.58;0.60;;;;;;;;;;4912299;29;20417;-61
2023/07/25 13:22:06;;;;;;;3.25;0.80;;;;;;;;;;4912364;29;20048;-61
2023/07/25 13:24:32;;;;;;;2.55;0.68;;;;;;;;;;4912188;29;20092;-61
2023/07/25 13:26:58;;;;;;;1.15;0.50;;;;;;;;;;4911636;29;20079;-61
2023/07/25 13:29:24;;;;;;;2.90;0.60;;;;;;;;;;4912347;29;20349;-61
2023/07/25 13:31:50;;;;;;;3.13;0.70;;;;;;;;;;4912097;29;20147;-61
2023/07/25 13:34:16;;;;;;;1.15;0.60;;;;;;;;;;4912097;29;20130;-61
2023/07/25 13:36:42;;;;;;;1.30;0.57;;;;;;;;;;4911595;29;20086;-61
2023/07/25 13:39:08;;;;;;;3.05;0.70;;;;;;;;;;4911821;29;20071;-61
2023/07/25 13:41:34;;;;;;;1.83;0.57;;;;;;;;;;4912132;29;20488;-62
2023/07/25 13:44:00;;;;;;;1.17;0.60;;;;;;;;;;4911901;29;20490;-61
2023/07/25 13:46:26;;;;;;;2.53;0.40;;;;;;;;;;4911938;29;20097;-61
2023/07/25 13:48:52;;;;;;;1.50;0.80;;;;;;;;;;4911518;29;20040;-61
2023/07/25 13:51:18;;;;;;;2.50;0.40;;;;;;;;;;4911753;29;20388;-61
2023/07/25 13:53:44;;;;;;;3.03;0.50;;;;;;;;;;4912060;29;20047;-61
2023/07/25 13:56:10;;;;;;;2.27;0.50;;;;;;;;;;4911695;29;20139;-61
2023/07/25 13:58:36;;;;;;;1.40;0.47;;;;;;;;;;4911726;29;20099;-62
2023/07/25 14:01:03;;;;;;;3.13;0.73;;;;;;;;;;4911749;29;20525;-61
2023/07/25 14:03:29;;;;;;;1.70;0.70;;;;;;;;;;4912077;29;20044;-61
2023/07/25 14:05:54;;;;;;;2.83;0.70;;;;;;;;;;4917864;29;20388;-61
2023/07/25 14:08:20;;;;;;;2.10;0.60;;;;;;;;;;4918052;29;20048;-62
2023/07/25 14:10:46;;;;;;;4.10;0.83;;;;;;;;;;4918546;29;20080;-61
2023/07/25 14:13:12;;;;;;;3.83;0.70;;;;;;;;;;4917953;29;20549;-61
2023/07/25 14:15:39;;;;;;;1.70;0.57;;;;;;;;;;4917572;29;20495;-61
2023/07/25 14:18:05;;;;;;;3.27;0.60;;;;;;;;;;4918372;29;20088;-61
2023/07/25 14:20:31;;;;;;;1.97;0.60;;;;;;;;;;4918566;29;20079;-61
2023/07/25 14:22:57;;;;;;;3.57;0.73;;;;;;;;;;4918304;29;20062;-61
2023/07/25 14:25:23;;;;;;;2.87;0.80;;;;;;;;;;4918154;29;20048;-61
2023/07/25 14:27:49;;;;;;;4.37;0.70;;;;;;;;;;4918640;29;20080;-61
2023/07/25 14:30:15;;;;;;;3.10;0.80;;;;;;;;;;4918629;29;20056;-61
2023/07/25 14:32:41;;;;;;;2.37;0.80;;;;;;;;;;4918425;29;20050;-61